Time;durP1;ratioP1;P1;durP2;ratioP2;P2;SDS_P1;SDS_P2;PMS_P1;PMS_P2;Temp;Humidity;BMP_temperature;BMP_pressure;BME280_temperature;BME280_humidity;BME280_pressure;Samples;Min_cycle;Max_cycle;Signal;HPM_P1;HPM_P2
2022/12/23 00:02:09;;;;;;;7.68;1.40;;;;;;;4.64;64.28;94331.63;5005268;28;20100;-76
2022/12/23 00:04:34;;;;;;;4.00;1.10;;;;;;;5.56;61.41;94336.31;4982964;28;20083;-76
2022/12/23 00:06:59;;;;;;;1.52;1.17;;;;;;;5.10;63.16;94340.63;5000293;28;20319;-77
2022/12/23 00:09:25;;;;;;;2.85;1.50;;;;;;;5.74;61.30;94347.41;4998252;28;20504;-77
2022/12/23 00:17:18;;;;;;;2.63;1.25;;;;;;;6.08;59.90;94347.91;5011400;28;20162;-77
2022/12/23 00:19:44;;;;;;;7.88;1.60;;;;;;;5.98;59.82;94348.16;5009088;28;20100;-76
2022/12/23 00:22:09;;;;;;;1.98;1.30;;;;;;;5.91;60.45;94344.59;5002732;28;20107;-76
2022/12/23 00:24:34;;;;;;;2.65;1.60;;;;;;;6.08;60.13;94337.34;4989126;28;20102;-76
2022/12/23 00:27:00;;;;;;;14.60;1.70;;;;;;;6.31;59.82;94351.47;4989694;28;20368;-75
2022/12/23 00:29:25;;;;;;;2.20;1.67;;;;;;;6.25;58.93;94345.06;5006335;28;20078;-76
2022/12/23 00:31:50;;;;;;;1.25;1.00;;;;;;;5.73;61.20;94344.94;4989410;28;20074;-76
2022/12/23 00:34:16;;;;;;;1.30;1.20;;;;;;;6.00;60.24;94342.69;5009122;28;20163;-77
2022/12/23 00:36:41;;;;;;;4.53;1.20;;;;;;;6.08;59.56;94352.34;5009085;28;20496;-77
2022/12/23 00:44:35;;;;;;;1.30;1.20;;;;;;;6.41;58.56;94333.50;5006086;28;20087;-76
2022/12/23 00:47:00;;;;;;;1.30;1.20;;;;;;;6.39;58.34;94332.84;5010117;28;20102;-76
2022/12/23 00:49:40;;;;;;;2.80;1.52;;;;;;;6.22;58.66;94343.63;5008844;28;20078;-76
2022/12/23 00:52:07;;;;;;;1.23;0.90;;;;;;;6.02;59.43;94340.69;5010659;28;20060;-76
2022/12/23 00:54:32;;;;;;;1.10;0.88;;;;;;;5.90;59.91;94353.53;4970423;28;20134;-76
2022/12/23 00:56:58;;;;;;;1.23;1.05;;;;;;;5.99;59.59;94349.00;4992744;28;20609;-77
2022/12/23 00:59:23;;;;;;;1.13;0.82;;;;;;;5.56;61.16;94352.16;4994565;28;20160;-76
2022/12/23 01:07:16;;;;;;;2.08;1.13;;;;;;;5.26;61.68;94365.25;5010181;28;20176;-77
2022/12/23 01:09:42;;;;;;;1.20;0.70;;;;;;;4.99;62.61;94375.31;5012325;28;20566;-76
2022/12/23 01:12:08;;;;;;;0.70;0.70;;;;;;;4.57;64.90;94383.41;4998265;28;20093;-75
2022/12/23 01:14:34;;;;;;;1.38;0.68;;;;;;;3.96;67.18;94374.16;5012627;28;20447;-76
2022/12/23 01:16:59;;;;;;;0.40;0.40;;;;;;;3.88;67.64;94390.78;4990441;28;20482;-76
2022/12/23 01:19:25;;;;;;;2.03;1.15;;;;;;;3.80;69.06;94390.78;4981303;28;20106;-76
2022/12/23 01:21:50;;;;;;;0.82;0.73;;;;;;;3.83;68.50;94390.47;5007901;28;20126;-76
2022/12/23 01:24:16;;;;;;;1.10;0.80;;;;;;;4.09;67.77;94392.09;4988449;28;20101;-76
2022/12/23 01:26:41;;;;;;;1.77;0.65;;;;;;;4.02;68.61;94391.13;4986691;28;20562;-76
2022/12/23 01:29:06;;;;;;;0.50;0.50;;;;;;;4.25;67.08;94396.50;5006990;28;20454;-76
2022/12/23 01:31:32;;;;;;;2.80;0.82;;;;;;;3.93;68.07;94404.28;5001342;28;20382;-76
2022/12/23 01:33:57;;;;;;;1.75;0.73;;;;;;;3.60;69.16;94417.44;5005517;28;20122;-76
2022/12/23 01:36:23;;;;;;;0.45;0.45;;;;;;;3.22;70.77;94412.59;5003622;28;20082;-77
2022/12/23 01:38:48;;;;;;;1.48;0.70;;;;;;;3.44;70.18;94407.72;5005448;28;20560;-76
2022/12/23 01:45:03;;;;;;;0.63;0.50;;;;;;;3.36;70.79;94421.69;5003426;28;20120;-76
2022/12/23 01:47:36;;;;;;;1.17;0.88;;;;;;;2.57;73.91;94443.78;4989182;28;20197;-75
2022/12/23 01:50:05;;;;;;;1.55;0.77;;;;;;;3.14;72.68;94442.34;4985478;28;20684;-75
2022/12/23 01:52:31;;;;;;;1.45;0.90;;;;;;;2.91;72.88;94440.31;4980686;28;20195;-75
2022/12/23 01:54:56;;;;;;;1.27;0.82;;;;;;;2.81;73.44;94457.19;4988837;28;20641;-76
2022/12/23 01:57:21;;;;;;;1.27;0.75;;;;;;;2.71;74.27;94441.53;4993910;28;20630;-74
2022/12/23 02:05:28;;;;;;;1.63;0.85;;;;;;;3.63;70.79;94447.88;4987224;28;20108;-74
2022/12/23 02:11:10;;;;;;;1.30;0.88;;;;;;;3.59;71.27;94438.66;5001806;28;20146;-74
2022/12/23 02:16:15;;;;;;;1.48;0.98;;;;;;;3.59;69.25;94438.66;5023314;28;20076;-75
2022/12/23 02:16:33;;;;;;;0.47;0.47;;;;;;;3.87;69.28;94440.97;5001915;28;20856;-75
2022/12/23 02:19:17;;;;;;;1.85;0.75;;;;;;;3.36;71.60;94455.88;4989153;28;20323;-74
2022/12/23 02:22:36;;;;;;;0.90;0.80;;;;;;;3.59;70.88;94454.47;4985526;28;20103;-75
2022/12/23 02:25:09;;;;;;;1.08;0.60;;;;;;;3.82;69.61;94454.66;5002204;28;20085;-75
2022/12/23 02:27:48;;;;;;;0.70;0.70;;;;;;;3.62;70.78;94449.72;5008132;28;20142;-75
2022/12/23 02:30:13;;;;;;;;;;;;;;;3.99;69.23;94452.00;5009607;28;20652;-74
2022/12/23 02:32:50;;;;;;;0.80;0.73;;;;;;;3.09;71.48;94465.66;5011344;28;19968;-74
2022/12/23 02:35:21;;;;;;;1.00;0.30;;;;;;;3.62;71.59;94459.41;5004515;28;20101;-74
2022/12/23 02:38:02;;;;;;;2.10;0.60;;;;;;;3.38;71.63;94453.94;5016484;28;20199;-75
2022/12/23 02:40:52;;;;;;;0.60;0.60;;;;;;;3.33;71.36;94461.47;4997789;28;20517;-75
2022/12/23 02:43:34;;;;;;;0.52;0.52;;;;;;;3.28;72.36;94454.06;4998108;28;20103;-75
2022/12/23 02:46:25;;;;;;;1.45;0.70;;;;;;;3.55;71.64;94459.25;4989124;28;20178;-75
2022/12/23 02:48:57;;;;;;;2.75;1.23;;;;;;;3.16;73.52;94456.16;5003309;28;20547;-74
2022/12/23 02:51:27;;;;;;;3.53;1.00;;;;;;;3.40;71.88;94472.16;5018268;28;20934;-76
2022/12/23 02:53:54;;;;;;;2.33;1.40;;;;;;;3.57;70.69;94456.44;4976651;28;20108;-75
2022/12/23 02:56:20;;;;;;;2.30;0.70;;;;;;;3.29;72.79;94447.81;4996907;28;20072;-75
2022/12/23 02:58:54;;;;;;;1.60;0.93;;;;;;;3.57;71.79;94448.56;5006350;28;20094;-75
2022/12/23 03:01:20;;;;;;;0.77;0.68;;;;;;;3.81;70.72;94453.00;4985656;28;20547;-75
2022/12/23 03:03:45;;;;;;;0.95;0.70;;;;;;;3.61;71.03;94453.31;4986764;28;20066;-75
2022/12/23 03:06:17;;;;;;;1.85;0.85;;;;;;;4.05;69.09;94456.63;4972987;28;20089;-75
2022/12/23 03:08:42;;;;;;;0.52;0.52;;;;;;;3.58;71.27;94455.44;4999727;28;20482;-74
2022/12/23 03:11:10;;;;;;;2.30;0.95;;;;;;;3.57;71.79;94478.31;4969226;28;20102;-75
2022/12/23 03:13:57;;;;;;;1.15;0.60;;;;;;;3.45;71.70;94466.44;4997603;28;20553;-75
2022/12/23 03:16:37;;;;;;;3.92;1.00;;;;;;;3.71;71.93;94457.63;5016917;28;20062;-76
2022/12/23 03:19:33;;;;;;;1.65;0.70;;;;;;;4.15;69.58;94465.16;4992058;28;20143;-76
2022/12/23 03:22:05;;;;;;;1.13;0.80;;;;;;;3.67;71.11;94488.69;5009115;28;20136;-75
2022/12/23 03:24:59;;;;;;;1.88;0.73;;;;;;;3.42;72.48;94471.03;5000713;28;20073;-75
2022/12/23 03:27:51;;;;;;;0.80;0.80;;;;;;;3.77;71.19;94464.84;5003190;28;20191;-76
2022/12/23 03:30:17;;;;;;;0.93;0.90;;;;;;;4.16;70.20;94472.09;5000570;28;20617;-76
2022/12/23 03:32:57;;;;;;;0.52;0.52;;;;;;;3.59;72.22;94476.34;4969820;28;20121;-75
2022/12/23 03:35:25;;;;;;;2.47;1.23;;;;;;;3.39;73.11;94481.88;5001360;28;20517;-75
2022/12/23 03:37:51;;;;;;;1.45;0.73;;;;;;;3.17;74.08;94493.81;4973789;28;20112;-75
2022/12/23 03:40:17;;;;;;;1.08;0.70;;;;;;;3.01;74.99;94500.66;5004736;28;20104;-75
2022/12/23 03:42:43;;;;;;;1.33;0.60;;;;;;;3.06;74.25;94496.75;5016616;28;20168;-75
2022/12/23 03:45:13;;;;;;;3.08;1.35;;;;;;;3.07;74.39;94508.91;4995119;28;20167;-75
2022/12/23 03:47:45;;;;;;;3.00;1.20;;;;;;;3.02;74.58;94506.72;5000311;28;20209;-75
2022/12/23 03:50:11;;;;;;;0.70;0.70;;;;;;;3.20;74.72;94508.47;5000249;28;20105;-75
2022/12/23 03:52:50;;;;;;;0.88;0.88;;;;;;;2.86;76.16;94508.31;4985377;28;20175;-76
2022/12/23 03:55:21;;;;;;;0.80;0.80;;;;;;;2.68;76.53;94497.06;4988596;28;20100;-75
2022/12/23 03:58:00;;;;;;;2.45;1.30;;;;;;;2.93;75.67;94507.69;4993349;28;20105;-76
2022/12/23 04:00:26;;;;;;;2.35;1.27;;;;;;;2.73;76.34;94513.19;4985520;28;20408;-75
2022/12/23 04:03:00;;;;;;;1.95;1.25;;;;;;;2.62;76.29;94509.03;4988271;28;20110;-75
2022/12/23 04:05:33;;;;;;;2.42;1.48;;;;;;;2.52;77.44;94503.88;4983876;28;20599;-76
2022/12/23 04:08:01;;;;;;;1.45;1.05;;;;;;;2.45;77.36;94527.28;4969627;28;20135;-76
2022/12/23 04:10:26;;;;;;;4.90;1.40;;;;;;;2.31;77.93;94522.63;4988439;28;20172;-75
2022/12/23 04:12:52;;;;;;;1.90;1.35;;;;;;;2.44;76.95;94523.03;4985711;28;20580;-75
2022/12/23 04:15:24;;;;;;;4.07;1.58;;;;;;;2.39;77.28;94518.22;4968512;28;20129;-75
2022/12/23 04:17:50;;;;;;;2.85;1.83;;;;;;;2.38;77.31;94521.84;5004805;28;20177;-76
2022/12/23 04:20:15;;;;;;;1.25;1.15;;;;;;;2.23;78.19;94518.09;4984283;28;20172;-75
2022/12/23 04:22:42;;;;;;;3.35;1.40;;;;;;;2.29;78.09;94522.75;4996520;28;20136;-75
2022/12/23 04:25:11;;;;;;;2.40;1.80;;;;;;;2.08;77.52;94534.41;5011897;28;20156;-75
2022/12/23 04:27:36;;;;;;;2.40;1.83;;;;;;;1.65;80.58;94526.31;4996296;28;20499;-76
2022/12/23 04:30:03;;;;;;;2.28;1.75;;;;;;;1.74;79.62;94520.16;5005974;28;20108;-76
2022/12/23 04:32:28;;;;;;;2.13;1.90;;;;;;;1.57;81.38;94529.66;5004702;28;20086;-76
2022/12/23 04:34:53;;;;;;;3.03;1.95;;;;;;;1.80;80.10;94510.88;4984926;28;20102;-75
2022/12/23 04:37:19;;;;;;;3.03;1.90;;;;;;;1.91;79.40;94522.97;4996830;28;20591;-76
2022/12/23 04:39:44;;;;;;;1.88;1.70;;;;;;;1.61;80.78;94522.34;4999929;28;20118;-75
2022/12/23 04:42:10;;;;;;;2.83;1.98;;;;;;;1.70;80.25;94521.44;5001525;28;20107;-75
2022/12/23 04:44:35;;;;;;;2.03;1.55;;;;;;;2.26;78.13;94491.53;4982095;28;20436;-75
2022/12/23 04:47:00;;;;;;;4.07;1.70;;;;;;;2.27;77.41;94499.28;5002018;28;20088;-75
2022/12/23 04:49:26;;;;;;;5.25;1.70;;;;;;;2.27;77.97;94506.31;5002380;28;20077;-75
2022/12/23 04:51:51;;;;;;;3.33;1.50;;;;;;;2.27;77.82;94508.94;5001543;28;20470;-75
2022/12/23 04:54:17;;;;;;;3.88;1.80;;;;;;;2.17;77.58;94510.84;5005196;28;20099;-76
2022/12/23 04:56:42;;;;;;;2.45;1.52;;;;;;;1.81;79.00;94514.34;4993880;28;20076;-76
2022/12/23 04:59:09;;;;;;;4.10;1.65;;;;;;;2.62;76.11;94515.09;4982262;28;20107;-75
2022/12/23 05:01:34;;;;;;;3.50;1.40;;;;;;;2.78;74.31;94513.53;5002353;28;20111;-76
2022/12/23 05:04:00;;;;;;;4.40;1.88;;;;;;;2.75;73.56;94508.56;5001759;28;20478;-75
2022/12/23 05:06:25;;;;;;;2.80;1.38;;;;;;;2.47;75.62;94521.88;5006322;28;20085;-75
2022/12/23 05:08:50;;;;;;;6.18;1.92;;;;;;;1.84;78.19;94520.09;4989657;28;20173;-75
2022/12/23 05:11:16;;;;;;;3.00;1.50;;;;;;;2.11;77.52;94525.41;5003949;28;20099;-76
2022/12/23 05:13:41;;;;;;;3.95;2.03;;;;;;;2.18;76.81;94533.50;5003439;28;20127;-76
2022/12/23 05:16:07;;;;;;;4.75;1.80;;;;;;;2.30;77.16;94518.31;5006235;28;20070;-76
2022/12/23 05:18:32;;;;;;;6.47;2.00;;;;;;;2.09;77.25;94522.09;5004545;28;20090;-77
2022/12/23 05:20:57;;;;;;;4.80;1.88;;;;;;;2.23;77.55;94528.63;5005773;28;20102;-76
2022/12/23 05:23:23;;;;;;;2.45;1.70;;;;;;;2.01;78.18;94534.19;5001918;28;20146;-76
2022/12/23 05:25:52;;;;;;;5.55;1.65;;;;;;;2.17;77.71;94532.66;4988843;28;20569;-75
2022/12/23 05:28:17;;;;;;;2.78;1.30;;;;;;;2.19;77.30;94543.88;4989638;28;20166;-75
2022/12/23 05:30:43;;;;;;;4.15;1.92;;;;;;;2.42;76.33;94539.91;5004577;28;20148;-76
2022/12/23 05:33:08;;;;;;;2.67;1.50;;;;;;;2.65;75.55;94541.06;5004652;28;20124;-76
2022/12/23 05:35:33;;;;;;;3.78;1.60;;;;;;;2.73;74.83;94550.78;5003747;28;20114;-75
2022/12/23 05:38:01;;;;;;;4.95;1.90;;;;;;;2.23;77.04;94539.97;5002209;28;20183;-75
2022/12/23 05:40:26;;;;;;;5.25;1.88;;;;;;;2.29;76.83;94549.03;5001994;28;20103;-75
2022/12/23 05:42:52;;;;;;;5.82;2.20;;;;;;;2.31;76.63;94535.75;5004588;28;20101;-75
2022/12/23 05:45:17;;;;;;;3.63;1.88;;;;;;;2.85;75.02;94530.31;5003222;28;20076;-75
2022/12/23 05:47:43;;;;;;;6.28;2.20;;;;;;;2.53;75.49;94548.34;4988291;28;20087;-75
2022/12/23 05:50:08;;;;;;;6.70;2.28;;;;;;;2.83;74.85;94534.09;5003503;28;20103;-75
2022/12/23 05:52:34;;;;;;;3.17;2.20;;;;;;;2.62;74.08;94549.25;5005338;28;20075;-76
2022/12/23 05:54:59;;;;;;;3.25;1.98;;;;;;;2.77;73.54;94540.81;4985824;28;20546;-75
2022/12/23 05:57:24;;;;;;;3.83;1.80;;;;;;;2.80;74.89;94537.88;4997815;28;20079;-76
2022/12/23 05:59:50;;;;;;;3.25;1.80;;;;;;;3.34;72.20;94552.59;5006394;28;20098;-76
2022/12/23 06:02:15;;;;;;;4.82;1.80;;;;;;;3.51;70.68;94550.03;4986245;28;20103;-76
2022/12/23 06:04:41;;;;;;;4.97;2.28;;;;;;;3.58;71.22;94553.69;4972216;28;20147;-75
2022/12/23 06:07:06;;;;;;;1.58;1.27;;;;;;;3.81;69.72;94545.16;5004133;28;20099;-76
2022/12/23 06:09:31;;;;;;;1.73;1.58;;;;;;;3.21;72.01;94549.56;5005141;28;20065;-75
2022/12/23 06:11:57;;;;;;;4.38;2.10;;;;;;;3.50;68.95;94556.28;5000494;28;20065;-75
2022/12/23 06:14:22;;;;;;;3.58;2.33;;;;;;;4.23;68.61;94566.28;4997643;28;20086;-75
2022/12/23 06:16:50;;;;;;;6.65;1.75;;;;;;;3.62;69.80;94557.63;4985817;28;20441;-76
2022/12/23 06:19:15;;;;;;;4.45;1.50;;;;;;;3.65;69.21;94564.38;4969752;28;20098;-75
2022/12/23 06:21:41;;;;;;;2.47;1.77;;;;;;;3.83;69.17;94577.41;4986850;28;20073;-76
2022/12/23 06:24:06;;;;;;;2.58;1.67;;;;;;;3.63;69.38;94585.59;4983509;28;20068;-75
2022/12/23 06:26:33;;;;;;;4.65;1.80;;;;;;;3.54;70.34;94582.09;5001155;28;20093;-76
2022/12/23 06:28:58;;;;;;;3.22;1.60;;;;;;;3.65;69.47;94588.91;5002827;28;20145;-75
2022/12/23 06:31:23;;;;;;;3.88;1.42;;;;;;;3.19;71.22;94596.25;4989417;28;20112;-75
2022/12/23 06:33:49;;;;;;;2.67;1.23;;;;;;;3.11;71.05;94592.59;5003608;28;20106;-75
2022/12/23 06:36:14;;;;;;;5.05;1.10;;;;;;;3.08;71.51;94590.28;5000330;28;20077;-75
2022/12/23 06:38:40;;;;;;;4.00;1.77;;;;;;;3.49;68.87;94600.19;4999717;28;20365;-76
2022/12/23 06:41:06;;;;;;;3.28;1.30;;;;;;;4.00;68.54;94603.78;5000811;28;20078;-75
2022/12/23 06:43:31;;;;;;;2.75;1.60;;;;;;;4.09;67.90;94597.56;4997758;28;20084;-76
2022/12/23 06:45:57;;;;;;;1.70;1.00;;;;;;;4.04;67.39;94594.56;5000605;28;20185;-75
2022/12/23 06:48:22;;;;;;;4.10;1.48;;;;;;;4.36;66.74;94587.72;5005745;28;20061;-75
2022/12/23 06:50:48;;;;;;;4.28;1.73;;;;;;;4.16;65.56;94592.47;4990592;28;20119;-76
2022/12/23 06:53:13;;;;;;;7.38;1.75;;;;;;;4.24;66.47;94589.00;5002025;28;20083;-75
2022/12/23 06:55:38;;;;;;;2.75;1.63;;;;;;;4.57;64.23;94589.00;5000574;28;20093;-76
2022/12/23 06:58:04;;;;;;;3.25;1.40;;;;;;;4.62;66.23;94577.97;5001829;28;20097;-76
2022/12/23 07:00:30;;;;;;;4.90;1.98;;;;;;;4.88;64.29;94575.13;5003489;28;20106;-76
2022/12/23 07:02:55;;;;;;;2.42;1.30;;;;;;;4.80;65.17;94578.59;4973925;28;20142;-76
2022/12/23 07:05:20;;;;;;;3.58;1.45;;;;;;;4.42;65.83;94573.84;5000087;28;20625;-76
2022/12/23 07:07:46;;;;;;;3.17;1.35;;;;;;;4.51;65.87;94573.84;5007109;28;20071;-76
2022/12/23 07:10:11;;;;;;;4.05;1.55;;;;;;;4.91;63.71;94576.59;5002030;28;20091;-76
2022/12/23 07:12:37;;;;;;;1.40;1.17;;;;;;;4.90;65.01;94580.25;5001720;28;20076;-77
2022/12/23 07:15:02;;;;;;;2.67;1.50;;;;;;;5.30;63.10;94582.97;5001523;28;20075;-76
2022/12/23 07:17:28;;;;;;;3.47;1.42;;;;;;;5.44;62.81;94584.09;5004710;28;20067;-76
2022/12/23 07:19:53;;;;;;;1.20;0.95;;;;;;;5.35;62.69;94593.84;5001913;28;20066;-76
2022/12/23 07:22:19;;;;;;;3.30;1.60;;;;;;;5.42;61.63;94600.09;4988789;28;20561;-76
2022/12/23 07:24:44;;;;;;;3.22;1.65;;;;;;;5.71;61.77;94589.88;5003560;28;20069;-76
2022/12/23 07:27:09;;;;;;;4.28;1.70;;;;;;;5.94;61.48;94581.19;5003953;28;20084;-76
2022/12/23 07:29:35;;;;;;;2.05;1.48;;;;;;;5.86;61.29;94592.63;5005734;28;20515;-77
2022/12/23 07:32:01;;;;;;;4.78;1.60;;;;;;;4.76;64.35;94581.75;4988442;28;20485;-76
2022/12/23 07:34:26;;;;;;;2.38;1.45;;;;;;;5.79;61.69;94592.50;5004641;28;20771;-76
2022/12/23 07:36:52;;;;;;;2.50;1.25;;;;;;;5.67;61.43;94604.44;4990142;28;20062;-76
2022/12/23 07:39:18;;;;;;;2.95;1.35;;;;;;;4.82;64.33;94618.81;4985750;28;20488;-77
2022/12/23 07:41:43;;;;;;;4.03;1.48;;;;;;;5.13;62.77;94619.16;5006476;28;20086;-76
2022/12/23 07:44:09;;;;;;;3.22;1.80;;;;;;;4.38;63.34;94632.31;4992903;28;20430;-76
2022/12/23 07:46:34;;;;;;;3.67;1.90;;;;;;;5.13;63.62;94635.78;5009968;28;20083;-76
2022/12/23 07:49:00;;;;;;;3.00;1.52;;;;;;;5.37;62.96;94631.44;4990109;28;20070;-76
2022/12/23 07:51:25;;;;;;;4.60;1.50;;;;;;;5.66;61.89;94640.59;5010165;28;20073;-77
2022/12/23 07:53:50;;;;;;;3.28;1.80;;;;;;;5.79;60.91;94644.50;4975274;28;20114;-76
2022/12/23 07:56:17;;;;;;;2.05;1.40;;;;;;;5.34;62.97;94637.88;5009870;28;20065;-76
2022/12/23 07:58:42;;;;;;;3.38;1.60;;;;;;;5.93;60.85;94633.22;4991566;28;20601;-77
2022/12/23 08:01:07;;;;;;;1.85;1.55;;;;;;;6.13;60.98;94630.94;4978756;28;20079;-77
2022/12/23 08:03:33;;;;;;;6.13;1.90;;;;;;;6.20;60.49;94624.97;4994791;28;20072;-76
2022/12/23 08:06:03;;;;;;;3.25;1.80;;;;;;;6.26;58.13;94626.94;5015544;28;20074;-76
2022/12/23 08:08:29;;;;;;;4.95;1.70;;;;;;;5.96;62.05;94630.22;5004271;28;20063;-76
2022/12/23 08:11:04;;;;;;;2.13;1.23;;;;;;;5.74;60.09;94637.91;5011840;28;20076;-76
2022/12/23 08:13:33;;;;;;;1.55;0.95;;;;;;;4.40;63.22;94631.19;5011539;28;20052;-76
2022/12/23 08:15:59;;;;;;;1.10;1.10;;;;;;;4.96;64.60;94619.13;4992797;28;20074;-76
2022/12/23 08:18:24;;;;;;;1.42;1.30;;;;;;;5.56;61.59;94621.47;4992016;28;20089;-76
2022/12/23 08:20:57;;;;;;;4.82;1.20;;;;;;;5.61;60.99;94633.19;5002124;28;20068;-77
2022/12/23 08:23:23;;;;;;;1.60;1.10;;;;;;;5.48;60.88;94633.72;4985746;28;20064;-77
2022/12/23 08:25:48;;;;;;;1.52;0.90;;;;;;;5.22;60.43;94633.97;4986515;28;20516;-76
2022/12/23 08:28:14;;;;;;;1.50;1.40;;;;;;;5.53;60.79;94632.38;5005247;28;20088;-77
2022/12/23 08:30:39;;;;;;;1.63;0.93;;;;;;;5.56;61.10;94629.41;5011319;28;20078;-77
2022/12/23 08:33:04;;;;;;;1.55;1.10;;;;;;;5.84;60.42;94634.22;5012002;28;20061;-77
2022/12/23 08:35:30;;;;;;;3.13;1.10;;;;;;;6.02;60.70;94630.53;5006414;28;20143;-77
2022/12/23 08:37:55;;;;;;;1.77;1.30;;;;;;;5.94;60.14;94637.50;5011217;28;20536;-77
2022/12/23 08:40:21;;;;;;;7.88;5.05;;;;;;;6.22;57.16;94634.38;5012868;28;20149;-77
2022/12/23 08:42:46;;;;;;;4.13;1.90;;;;;;;5.71;60.47;94646.19;5010858;28;20402;-77
2022/12/23 08:45:11;;;;;;;1.80;1.48;;;;;;;6.11;60.50;94632.13;5012601;28;20078;-78
2022/12/23 08:47:37;;;;;;;4.45;1.70;;;;;;;6.48;59.75;94627.97;5010148;28;20090;-77
2022/12/23 08:50:03;;;;;;;3.40;1.83;;;;;;;6.57;58.10;94622.59;5012388;28;20082;-78
2022/12/23 08:52:28;;;;;;;3.30;1.63;;;;;;;6.73;60.43;94616.34;5013226;28;20057;-78
2022/12/23 08:54:53;;;;;;;2.80;1.60;;;;;;;6.61;60.24;94615.97;5011541;28;20071;-78
2022/12/23 08:57:19;;;;;;;3.15;1.77;;;;;;;6.28;57.12;94608.22;5013067;28;20274;-77
2022/12/23 08:59:45;;;;;;;2.03;1.60;;;;;;;6.97;59.74;94609.22;5017400;28;21566;-78
2022/12/23 09:02:11;;;;;;;6.07;2.05;;;;;;;7.11;57.27;94612.88;5017784;28;20104;-78
2022/12/23 09:04:37;;;;;;;3.55;1.80;;;;;;;7.13;57.59;94608.22;5010802;28;20040;-78
2022/12/23 09:07:02;;;;;;;1.73;1.60;;;;;;;7.16;57.27;94615.78;5007161;28;20078;-78
2022/12/23 09:09:27;;;;;;;7.70;2.42;;;;;;;6.57;55.13;94619.97;4996935;28;20057;-77
2022/12/23 09:11:53;;;;;;;3.00;2.10;;;;;;;6.30;59.52;94624.75;4996424;28;20046;-77
2022/12/23 09:14:18;;;;;;;3.33;1.92;;;;;;;5.66;59.13;94614.19;5013070;28;20072;-78
2022/12/23 09:16:44;;;;;;;3.90;2.20;;;;;;;6.47;59.94;94610.41;5008831;28;20086;-78
2022/12/23 09:19:09;;;;;;;3.83;2.10;;;;;;;5.93;59.48;94614.72;4975703;28;20078;-78
2022/12/23 09:21:35;;;;;;;4.13;2.60;;;;;;;6.30;60.66;94620.28;5004355;28;20105;-77
2022/12/23 09:24:00;;;;;;;4.95;3.30;;;;;;;6.56;60.98;94618.31;4994747;28;20054;-78
2022/12/23 09:26:28;;;;;;;5.22;2.90;;;;;;;6.42;57.81;94623.34;5010258;28;20086;-78
2022/12/23 09:28:53;;;;;;;4.10;2.35;;;;;;;6.50;58.77;94619.84;4974990;28;20490;-77
2022/12/23 09:31:19;;;;;;;3.28;2.33;;;;;;;6.07;59.91;94613.16;5009870;28;20432;-78
2022/12/23 09:33:48;;;;;;;4.70;2.40;;;;;;;6.32;58.92;94617.47;5004171;28;20136;-78
2022/12/23 09:36:13;;;;;;;4.53;2.58;;;;;;;6.02;59.50;94631.34;5006849;28;20118;-78
2022/12/23 09:38:39;;;;;;;4.05;2.35;;;;;;;6.31;59.08;94626.38;4989052;28;20086;-77
2022/12/23 09:41:20;;;;;;;4.18;2.15;;;;;;;6.16;58.24;94627.16;4991858;28;20050;-77
2022/12/23 09:44:14;;;;;;;2.38;1.60;;;;;;;6.33;58.79;94627.84;5001093;28;20086;-77
2022/12/23 09:46:47;;;;;;;4.13;2.10;;;;;;;6.27;58.42;94633.00;5005790;28;20564;-77
2022/12/23 09:49:15;;;;;;;2.55;1.52;;;;;;;5.67;57.88;94615.84;4992074;28;20510;-78
2022/12/23 09:51:40;;;;;;;6.50;3.03;;;;;;;6.24;60.82;94611.25;5009152;28;20443;-78
2022/12/23 09:54:41;;;;;;;1.85;1.65;;;;;;;6.55;59.86;94617.50;4971652;28;20072;-77
2022/12/23 09:57:20;;;;;;;2.83;1.50;;;;;;;5.98;56.88;94628.22;5014660;28;20068;-77
2022/12/23 10:00:17;;;;;;;5.88;3.28;;;;;;;6.39;60.13;94618.38;5007298;28;20078;-77
2022/12/23 10:03:14;;;;;;;4.03;1.50;;;;;;;6.92;57.35;94609.75;5013124;28;20083;-77
2022/12/23 10:05:46;;;;;;;2.95;1.83;;;;;;;7.05;54.30;94606.47;4993786;28;20071;-78
2022/12/23 10:08:21;;;;;;;2.53;1.52;;;;;;;6.25;56.48;94597.03;5012722;28;20138;-78
2022/12/23 10:10:48;;;;;;;2.67;1.40;;;;;;;7.26;56.55;94589.88;5010996;28;20082;-78
2022/12/23 10:13:28;;;;;;;1.85;1.20;;;;;;;7.33;54.86;94583.84;5007303;28;20198;-78
2022/12/23 10:15:54;;;;;;;1.48;1.30;;;;;;;7.49;54.93;94583.69;4999726;28;20101;-77
2022/12/23 10:18:24;;;;;;;2.60;1.50;;;;;;;7.59;54.86;94575.44;4999727;28;20079;-78
2022/12/23 10:20:52;;;;;;;2.15;1.20;;;;;;;7.52;53.01;94574.53;5011170;28;20107;-78
2022/12/23 10:23:31;;;;;;;3.58;1.65;;;;;;;7.54;55.31;94572.50;5014410;28;20078;-78
2022/12/23 10:25:56;;;;;;;1.58;1.35;;;;;;;7.08;52.56;94574.38;5003871;28;20097;-78
2022/12/23 10:28:21;;;;;;;4.90;1.70;;;;;;;6.97;55.74;94578.25;4982372;28;20537;-68
2022/12/23 10:30:57;;;;;;;7.38;4.88;;;;;;;6.80;58.60;94592.66;5002515;28;20066;-68
2022/12/23 10:33:29;;;;;;;1.67;1.50;;;;;;;6.84;58.41;94583.38;5002231;28;20130;-68
2022/12/23 10:36:30;;;;;;;2.55;1.55;;;;;;;7.23;56.56;94584.94;4990056;28;20094;-65
2022/12/23 10:39:06;;;;;;;2.45;1.55;;;;;;;7.37;57.44;94574.53;5014809;28;20089;-76
2022/12/23 10:41:43;;;;;;;3.63;2.25;;;;;;;7.60;56.69;94565.66;4982446;28;20070;-76
2022/12/23 10:44:35;;;;;;;3.03;2.30;;;;;;;7.79;57.29;94554.50;5016823;28;20512;-77
2022/12/23 10:47:00;;;;;;;4.68;2.22;;;;;;;7.30;54.74;94550.63;5009063;28;20071;-63
2022/12/23 10:49:40;;;;;;;7.67;4.67;;;;;;;7.68;58.56;94549.66;5009837;28;20515;-64
2022/12/23 10:52:11;;;;;;;2.95;1.90;;;;;;;7.90;58.74;94544.44;5003230;28;20305;-65
2022/12/23 10:54:37;;;;;;;2.10;1.83;;;;;;;8.11;59.84;94540.16;5011825;28;20332;-66
2022/12/23 10:57:03;;;;;;;2.47;2.15;;;;;;;8.15;53.97;94528.97;5015215;28;20448;-66
2022/12/23 10:59:31;;;;;;;4.88;1.48;;;;;;;7.78;53.88;94518.41;5003107;28;20075;-67
2022/12/23 11:02:11;;;;;;;4.88;3.15;;;;;;;8.00;57.18;94518.44;5002854;28;20099;-66
2022/12/23 11:04:47;;;;;;;2.08;1.40;;;;;;;8.30;57.69;94509.53;5005348;28;20155;-65
2022/12/23 11:07:16;;;;;;;3.75;1.88;;;;;;;8.56;58.91;94503.63;5003020;28;20096;-66
2022/12/23 11:09:43;;;;;;;3.95;2.40;;;;;;;8.71;58.98;94500.06;5001666;28;20080;-65
2022/12/23 11:12:10;;;;;;;3.10;1.60;;;;;;;8.86;56.38;94501.78;5000830;28;20164;-65
2022/12/23 11:14:36;;;;;;;1.63;1.40;;;;;;;8.98;55.20;94491.47;5003743;28;20071;-64
2022/12/23 11:17:02;;;;;;;2.65;1.48;;;;;;;9.07;56.86;94496.44;5006754;28;20564;-65
2022/12/23 11:19:28;;;;;;;4.38;2.10;;;;;;;8.98;52.26;94492.31;5002017;28;20090;-65
2022/12/23 11:21:57;;;;;;;4.50;2.40;;;;;;;8.49;53.51;94489.50;5013764;28;20335;-65
2022/12/23 11:24:23;;;;;;;6.90;3.17;;;;;;;8.64;56.29;94477.97;5002011;28;20040;-65
2022/12/23 11:27:00;;;;;;;5.00;2.35;;;;;;;8.61;53.08;94470.38;5006508;28;20550;-65
2022/12/23 11:29:33;;;;;;;4.28;1.92;;;;;;;8.49;55.83;94462.13;5001470;28;20308;-65
2022/12/23 11:31:58;;;;;;;4.75;3.20;;;;;;;8.77;58.83;94458.66;5003793;28;20391;-65
2022/12/23 11:34:24;;;;;;;3.38;2.30;;;;;;;8.85;54.70;94449.72;5004681;28;20118;-65
2022/12/23 11:36:59;;;;;;;5.82;3.40;;;;;;;8.91;58.29;94454.25;4999786;28;20062;-66
2022/12/23 11:39:28;;;;;;;8.70;5.57;;;;;;;8.86;57.05;94454.00;5001191;28;20084;-65
2022/12/23 11:42:17;;;;;;;8.60;4.93;;;;;;;8.98;56.54;94447.16;5002291;28;20178;-65
2022/12/23 11:44:44;;;;;;;6.75;3.15;;;;;;;9.13;58.10;94441.72;5015511;28;20051;-65
2022/12/23 11:47:21;;;;;;;6.78;2.13;;;;;;;9.20;56.82;94441.72;5016051;28;20072;-65
2022/12/23 11:49:51;;;;;;;5.43;2.50;;;;;;;7.93;51.97;94453.94;4996198;28;20086;-66
2022/12/23 11:52:18;;;;;;;4.85;2.60;;;;;;;8.18;53.76;94446.41;5002529;28;20045;-66
2022/12/23 11:54:51;;;;;;;3.92;2.80;;;;;;;8.62;57.14;94446.31;5001274;28;20078;-65
2022/12/23 11:57:19;;;;;;;10.40;6.55;;;;;;;8.17;55.90;94457.22;4999059;28;20072;-65
2022/12/23 11:59:49;;;;;;;4.90;2.83;;;;;;;7.76;54.57;94456.81;4998623;28;20067;-65
2022/12/23 12:02:20;;;;;;;6.10;2.97;;;;;;;7.52;56.43;94455.34;5002635;28;20626;-65
2022/12/23 12:04:52;;;;;;;5.97;3.10;;;;;;;5.45;61.01;94446.63;4995783;28;20137;-65
2022/12/23 12:07:18;;;;;;;2.95;2.15;;;;;;;6.17;59.49;94443.78;4980544;28;20155;-65
2022/12/23 12:09:44;;;;;;;3.05;1.90;;;;;;;7.06;56.02;94433.44;5001449;28;20543;-64
2022/12/23 12:12:15;;;;;;;8.45;5.57;;;;;;;7.42;58.84;94434.47;4998972;28;20487;-65
2022/12/23 12:14:43;;;;;;;6.93;4.10;;;;;;;7.68;58.71;94429.63;5002934;28;20066;-66
2022/12/23 12:17:13;;;;;;;3.30;2.50;;;;;;;7.84;57.19;94424.09;5005305;28;20186;-65
2022/12/23 12:19:42;;;;;;;9.13;4.93;;;;;;;8.16;58.52;94405.22;5001283;28;20162;-66